createdAt,value
2023-04-01T00:00:36.893Z,56.93
2023-04-01T00:01:36.874Z,54.96
2023-04-01T00:02:36.928Z,57.28
2023-04-01T00:03:37.049Z,61.72
2023-04-01T00:04:36.888Z,55.92
2023-04-01T00:05:36.850Z,60.12
2023-04-01T00:06:36.859Z,57.18
2023-04-01T00:07:36.835Z,52.14
2023-04-01T00:08:36.843Z,58.21
2023-04-01T00:09:36.831Z,56.36
2023-04-01T00:10:36.803Z,57.90
2023-04-01T00:11:36.861Z,56.10
2023-04-01T00:12:36.790Z,62.67
2023-04-01T00:13:36.804Z,54.89
2023-04-01T00:14:36.785Z,51.33
2023-04-01T00:15:36.798Z,65.68
2023-04-01T00:16:36.809Z,58.94
2023-04-01T00:17:36.803Z,54.71
2023-04-01T00:18:36.761Z,53.06
2023-04-01T00:19:36.729Z,59.40
2023-04-01T00:20:36.735Z,59.78
2023-04-01T00:21:36.716Z,55.07
2023-04-01T00:24:36.452Z,55.40
2023-04-01T00:25:37.521Z,60.05
2023-04-01T00:26:37.542Z,62.25
2023-04-01T00:27:37.513Z,59.98
2023-04-01T00:28:37.542Z,54.62
2023-04-01T00:29:37.490Z,59.82
2023-04-01T00:30:37.516Z,60.05
2023-04-01T00:31:37.497Z,55.53
2023-04-01T00:32:37.504Z,62.14
2023-04-01T00:33:37.462Z,60.93
2023-04-01T00:34:37.456Z,49.71
2023-04-01T00:35:37.474Z,52.70
2023-04-01T00:36:37.484Z,62.35
2023-04-01T00:37:37.443Z,59.72
2023-04-01T00:38:37.414Z,64.28
2023-04-01T00:39:37.420Z,58.33
2023-04-01T00:40:37.413Z,61.48
2023-04-01T00:41:37.415Z,62.57
2023-04-01T00:42:37.393Z,63.07
2023-04-01T00:43:37.919Z,52.99
2023-04-01T00:44:37.366Z,57.51
2023-04-01T00:45:37.383Z,58.30
2023-04-01T00:46:37.373Z,60.87
2023-04-01T00:47:38.344Z,56.20
2023-04-01T00:48:37.364Z,58.09
2023-04-01T00:49:37.330Z,52.25
2023-04-01T00:50:37.327Z,66.94
2023-04-01T00:51:37.328Z,60.72
2023-04-01T00:52:37.300Z,55.92
2023-04-01T00:53:37.304Z,55.12
2023-04-01T00:54:37.301Z,52.88
2023-04-01T00:55:38.277Z,51.04
2023-04-01T00:56:37.277Z,49.52
2023-04-01T00:57:37.272Z,66.57
2023-04-01T00:58:37.271Z,54.89
2023-04-01T00:59:37.243Z,45.82
2023-04-01T01:00:37.323Z,62.02
2023-04-01T01:01:38.252Z,64.07
2023-04-01T01:02:37.346Z,52.12
2023-04-01T01:03:37.222Z,62.66
2023-04-01T01:04:37.205Z,58.06
2023-04-01T01:05:48.146Z,64.00
2023-04-01T01:06:38.199Z,61.28
2023-04-01T01:07:37.193Z,48.21
2023-04-01T01:08:37.201Z,48.22
2023-04-01T01:09:37.177Z,58.49
2023-04-01T01:10:37.165Z,56.38
2023-04-01T01:11:42.772Z,51.34
2023-04-01T01:12:39.155Z,60.61
2023-04-01T01:13:37.181Z,49.97
2023-04-01T01:14:37.130Z,61.19
2023-04-01T01:15:37.815Z,59.90
2023-04-01T01:16:37.175Z,57.04
2023-04-01T01:17:37.131Z,47.92
2023-04-01T01:18:37.112Z,61.42
2023-04-01T01:19:37.090Z,55.72
2023-04-01T01:20:37.094Z,49.27
2023-04-01T01:21:37.887Z,56.94
2023-04-01T01:22:38.074Z,57.80
2023-04-01T01:23:37.905Z,59.09
2023-04-01T01:24:37.056Z,54.59
2023-04-01T01:25:37.047Z,53.01
2023-04-01T01:26:37.049Z,53.54
2023-04-01T01:27:37.064Z,61.77
2023-04-01T01:28:37.012Z,60.63
2023-04-01T01:29:37.020Z,54.89
2023-04-01T01:30:37.011Z,58.90
2023-04-01T01:31:37.002Z,53.65
2023-04-01T01:32:37.014Z,62.57
2023-04-01T01:33:36.975Z,51.73
2023-04-01T01:34:38.436Z,57.91
2023-04-01T01:35:36.965Z,51.37
2023-04-01T01:36:36.957Z,60.31
2023-04-01T01:37:37.922Z,57.90
2023-04-01T01:38:36.944Z,62.02
2023-04-01T01:39:36.930Z,52.27
2023-04-01T01:40:36.916Z,53.21
2023-04-01T01:41:36.902Z,49.76
2023-04-01T01:42:36.973Z,57.97
2023-04-01T01:43:36.893Z,62.50
2023-04-01T01:44:37.904Z,50.95
2023-04-01T01:45:36.899Z,49.24
2023-04-01T01:46:36.965Z,51.38
2023-04-01T01:47:37.455Z,59.10
2023-04-01T01:48:36.867Z,62.01
2023-04-01T01:49:36.840Z,61.70
2023-04-01T01:50:36.836Z,46.78
2023-04-01T01:51:36.820Z,54.12
2023-04-01T01:52:36.823Z,52.39
2023-04-01T01:53:37.421Z,45.61
2023-04-01T01:54:36.797Z,54.45
2023-04-01T01:55:36.785Z,53.10
2023-04-01T01:56:36.775Z,52.65
2023-04-01T01:57:36.782Z,56.93
2023-04-01T01:58:36.769Z,54.19
2023-04-01T01:59:36.759Z,58.32
2023-04-01T02:00:36.763Z,50.34
2023-04-01T02:01:36.898Z,56.83
2023-04-01T02:02:36.798Z,47.26
2023-04-01T02:03:36.731Z,52.78
2023-04-01T02:04:36.752Z,56.38
2023-04-01T02:05:36.721Z,59.09
2023-04-01T02:06:36.703Z,53.75
2023-04-01T02:07:36.729Z,54.83
2023-04-01T02:08:36.696Z,55.44
2023-04-01T02:09:36.682Z,47.90
2023-04-01T02:10:36.656Z,54.07
2023-04-01T02:11:36.692Z,56.67
2023-04-01T02:12:36.652Z,56.14
2023-04-01T02:13:36.643Z,60.54
2023-04-01T02:14:36.637Z,54.15
2023-04-01T02:15:36.700Z,55.88
2023-04-01T02:16:36.602Z,50.55
2023-04-01T02:17:36.659Z,53.48
2023-04-01T02:18:36.602Z,57.79
2023-04-01T02:19:36.597Z,58.64
2023-04-01T02:20:36.590Z,51.94
2023-04-01T02:21:36.593Z,56.69
2023-04-01T02:22:36.581Z,48.68
2023-04-01T02:23:36.563Z,59.83
2023-04-01T02:24:36.571Z,55.18
2023-04-01T02:25:36.542Z,49.99
2023-04-01T02:26:36.540Z,56.08
2023-04-01T02:27:36.551Z,50.18
2023-04-01T02:28:36.516Z,51.90
2023-04-01T02:29:36.526Z,55.49
2023-04-01T02:30:36.504Z,56.03
2023-04-01T02:31:37.546Z,50.75
2023-04-01T02:32:36.540Z,48.61
2023-04-01T02:33:36.491Z,55.92
2023-04-01T02:34:36.470Z,60.56
2023-04-01T02:35:36.476Z,60.82
2023-04-01T02:36:36.469Z,57.66
2023-04-01T02:37:39.145Z,45.66
2023-04-01T02:38:36.464Z,44.41
2023-04-01T02:39:36.427Z,49.71
2023-04-01T02:40:36.430Z,45.53
2023-04-01T02:41:36.427Z,54.65
2023-04-01T02:42:36.417Z,57.26
2023-04-01T02:43:37.340Z,55.31
2023-04-01T02:44:36.415Z,51.35
2023-04-01T02:45:36.391Z,57.18
2023-04-01T02:46:36.390Z,51.07
2023-04-01T02:47:36.444Z,52.14
2023-04-01T02:48:36.379Z,51.64
2023-04-01T02:49:36.364Z,50.56
2023-04-01T02:50:36.353Z,62.45
2023-04-01T02:51:36.362Z,51.25
2023-04-01T02:52:36.355Z,44.31
2023-04-01T02:53:36.344Z,53.21
2023-04-01T02:54:36.339Z,60.50
2023-04-01T02:55:36.306Z,49.62
2023-04-01T02:56:37.935Z,48.51
2023-04-01T02:57:36.293Z,52.95
2023-04-01T02:58:36.300Z,57.66
2023-04-01T02:59:36.284Z,54.26
2023-04-01T03:00:36.915Z,56.77
2023-04-01T03:01:37.342Z,54.61
2023-04-01T03:02:36.318Z,56.25
2023-04-01T03:03:36.274Z,50.85
2023-04-01T03:04:36.235Z,51.32
2023-04-01T03:05:36.315Z,49.59
2023-04-01T03:06:36.242Z,56.95
2023-04-01T03:07:36.232Z,46.57
2023-04-01T03:08:36.206Z,56.05
2023-04-01T03:09:36.203Z,56.27
2023-04-01T03:10:36.205Z,54.75
2023-04-01T03:11:36.186Z,48.92
2023-04-01T03:12:36.189Z,57.41
2023-04-01T03:13:36.169Z,61.87
2023-04-01T03:14:36.169Z,57.22
2023-04-01T03:15:36.143Z,58.36
2023-04-01T03:16:36.210Z,48.05
2023-04-01T03:17:36.186Z,57.06
2023-04-01T03:18:36.131Z,56.48
2023-04-01T03:19:36.123Z,54.01
2023-04-01T03:20:36.105Z,60.19
2023-04-01T03:21:36.471Z,60.73
2023-04-01T03:22:36.939Z,51.28
2023-04-01T03:23:36.102Z,56.94
2023-04-01T03:24:36.083Z,61.58
2023-04-01T03:25:36.078Z,57.74
2023-04-01T03:26:36.067Z,60.32
2023-04-01T03:27:36.067Z,60.62
2023-04-01T03:28:36.049Z,57.73
2023-04-01T03:29:36.083Z,57.69
2023-04-01T03:30:36.091Z,58.57
2023-04-01T03:31:36.065Z,58.77
2023-04-01T03:32:36.065Z,55.74
2023-04-01T03:33:35.999Z,61.94
2023-04-01T03:34:36.008Z,60.76
2023-04-01T03:35:35.986Z,58.16
2023-04-01T03:36:35.999Z,62.54
2023-04-01T03:37:36.083Z,56.98
2023-04-01T03:38:36.009Z,58.53
2023-04-01T03:39:35.965Z,62.68
2023-04-01T03:40:35.942Z,60.72
2023-04-01T03:41:35.950Z,61.77
2023-04-01T03:42:35.965Z,58.69
2023-04-01T03:43:35.939Z,61.86
2023-04-01T03:44:35.934Z,60.05
2023-04-01T03:45:35.926Z,60.00
2023-04-01T03:46:36.019Z,60.07
2023-04-01T03:47:35.967Z,63.74
2023-04-01T03:48:36.850Z,62.08
2023-04-01T03:49:35.886Z,58.49
2023-04-01T03:50:35.878Z,57.73
2023-04-01T03:51:35.865Z,57.29
2023-04-01T03:52:35.876Z,56.87
2023-04-01T03:53:35.945Z,58.72
2023-04-01T03:54:35.844Z,54.68
2023-04-01T03:55:35.830Z,58.26
2023-04-01T03:56:35.842Z,57.50
2023-04-01T03:57:35.868Z,54.52
2023-04-01T03:58:35.804Z,55.20
2023-04-01T03:59:35.800Z,55.08
2023-04-01T04:00:35.781Z,52.83
2023-04-01T04:01:36.773Z,57.03
2023-04-01T04:02:36.486Z,59.67
2023-04-01T04:03:35.928Z,59.14
2023-04-01T04:04:37.467Z,59.78
2023-04-01T04:05:36.094Z,63.83
2023-04-01T04:06:35.786Z,58.05
2023-04-01T04:07:35.740Z,55.08
2023-04-01T04:08:36.739Z,57.60
2023-04-01T04:09:35.739Z,61.60
2023-04-01T04:10:36.369Z,59.38
2023-04-01T04:11:36.862Z,59.78
2023-04-01T04:12:38.439Z,58.46
2023-04-01T04:13:36.384Z,69.18
2023-04-01T04:14:35.694Z,74.16
2023-04-01T04:15:35.685Z,69.66
2023-04-01T04:16:36.514Z,62.21
2023-04-01T04:17:35.695Z,60.03
2023-04-01T04:18:35.698Z,61.07
2023-04-01T04:19:35.715Z,60.40
2023-04-01T04:20:35.624Z,53.92
2023-04-01T04:21:38.446Z,57.30
2023-04-01T04:22:35.621Z,51.79
2023-04-01T04:23:35.603Z,55.12
2023-04-01T04:24:35.609Z,60.78
2023-04-01T04:25:35.590Z,58.93
2023-04-01T04:26:35.592Z,58.77
2023-04-01T04:27:35.570Z,58.72
2023-04-01T04:28:35.565Z,59.15
2023-04-01T04:29:35.559Z,58.78
2023-04-01T04:30:35.545Z,65.18
2023-04-01T04:31:35.581Z,63.19
2023-04-01T04:32:35.565Z,65.17
2023-04-01T04:33:36.382Z,60.27
2023-04-01T04:34:35.531Z,60.90
2023-04-01T04:35:35.944Z,57.02
2023-04-01T04:36:35.518Z,59.51
2023-04-01T04:37:35.514Z,57.98
2023-04-01T04:38:35.488Z,57.45
2023-04-01T04:39:35.482Z,59.92
2023-04-01T04:40:35.460Z,59.25
2023-04-01T04:41:37.626Z,54.85
2023-04-01T04:42:36.451Z,63.28
2023-04-01T04:43:35.472Z,59.21
2023-04-01T04:44:35.467Z,56.46
2023-04-01T04:45:37.354Z,54.59
2023-04-01T04:46:35.490Z,54.98
2023-04-01T04:47:35.439Z,62.23
2023-04-01T04:48:35.398Z,62.02
2023-04-01T04:49:36.392Z,57.43
2023-04-01T04:50:35.388Z,56.64
2023-04-01T04:51:35.391Z,64.06
2023-04-01T04:52:35.371Z,62.38
2023-04-01T04:53:35.373Z,58.25
2023-04-01T04:54:35.374Z,60.40
2023-04-01T04:55:35.558Z,62.74
2023-04-01T04:56:35.343Z,57.06
2023-04-01T04:57:35.391Z,61.07
2023-04-01T04:58:35.332Z,60.63
2023-04-01T04:59:35.318Z,59.42
2023-04-01T05:00:35.325Z,59.78
2023-04-01T05:01:35.329Z,61.09
2023-04-01T05:02:35.366Z,64.68
2023-04-01T05:03:35.705Z,62.37
2023-04-01T05:04:35.269Z,61.76
2023-04-01T05:05:35.255Z,67.26
2023-04-01T05:06:35.270Z,61.65
2023-04-01T05:07:35.261Z,59.69
2023-04-01T05:08:35.240Z,62.48
2023-04-01T05:09:35.223Z,61.81
2023-04-01T05:10:36.225Z,60.85
2023-04-01T05:11:35.217Z,62.78
2023-04-01T05:12:35.218Z,61.21
2023-04-01T05:13:35.198Z,61.18
2023-04-01T05:14:35.193Z,63.79
2023-04-01T05:15:35.470Z,60.62
2023-04-01T05:16:35.989Z,56.18
2023-04-01T05:17:35.216Z,57.32
2023-04-01T05:18:35.153Z,62.55
2023-04-01T05:19:35.143Z,61.77
2023-04-01T05:20:35.142Z,63.73
2023-04-01T05:21:35.141Z,66.09
2023-04-01T05:22:35.158Z,63.19
2023-04-01T05:23:35.165Z,62.56
2023-04-01T05:24:35.879Z,60.71
2023-04-01T05:25:35.346Z,60.12
2023-04-01T05:26:35.099Z,68.67
2023-04-01T05:27:37.886Z,63.24
2023-04-01T05:28:35.088Z,61.31
2023-04-01T05:29:35.093Z,63.65
2023-04-01T05:30:35.089Z,62.45
2023-04-01T05:31:35.078Z,62.28
2023-04-01T05:32:35.086Z,60.92
2023-04-01T05:33:35.042Z,65.88
2023-04-01T05:34:35.037Z,64.74
2023-04-01T05:35:35.287Z,58.75
2023-04-01T05:36:35.014Z,61.53
2023-04-01T05:37:36.015Z,61.26
2023-04-01T05:38:34.992Z,64.23
2023-04-01T05:39:34.995Z,63.89
2023-04-01T05:40:34.996Z,64.92
2023-04-01T05:41:34.975Z,63.91
2023-04-01T05:42:37.688Z,60.99
2023-04-01T05:43:34.966Z,66.85
2023-04-01T05:44:35.884Z,66.12
2023-04-01T05:45:35.153Z,64.29
2023-04-01T05:46:35.070Z,62.31
2023-04-01T05:47:34.948Z,62.86
2023-04-01T05:48:34.930Z,64.86
2023-04-01T05:49:34.910Z,59.89
2023-04-01T05:50:34.909Z,57.88
2023-04-01T05:51:34.899Z,63.42
2023-04-01T05:52:34.904Z,64.64
2023-04-01T05:53:34.885Z,61.96
2023-04-01T05:54:34.882Z,63.91
2023-04-01T05:55:35.047Z,64.32
2023-04-01T05:56:34.879Z,65.06
2023-04-01T05:57:34.969Z,67.19
2023-04-01T05:58:34.837Z,63.71
2023-04-01T05:59:34.852Z,63.55
2023-04-01T06:00:34.821Z,62.67
2023-04-01T06:01:34.832Z,64.71
2023-04-01T06:02:34.933Z,65.28
2023-04-01T06:03:34.929Z,65.93
2023-04-01T06:04:34.861Z,62.36
2023-04-01T06:05:35.046Z,66.23
2023-04-01T06:06:34.797Z,62.47
2023-04-01T06:07:34.773Z,65.59
2023-04-01T06:08:34.785Z,65.80
2023-04-01T06:09:34.766Z,61.27
2023-04-01T06:10:34.743Z,64.67
2023-04-01T06:11:34.736Z,62.88
2023-04-01T06:12:35.743Z,62.61
2023-04-01T06:13:34.731Z,64.98
2023-04-01T06:14:34.713Z,59.48
2023-04-01T06:15:34.997Z,61.37
2023-04-01T06:16:34.749Z,60.70
2023-04-01T06:17:34.716Z,60.90
2023-04-01T06:18:34.680Z,64.85
2023-04-01T06:19:34.669Z,63.56
2023-04-01T06:20:34.675Z,65.38
2023-04-01T06:21:34.685Z,64.53
2023-04-01T06:22:34.692Z,65.88
2023-04-01T06:23:35.393Z,66.34
2023-04-01T06:24:34.647Z,68.02
2023-04-01T06:25:34.966Z,63.30
2023-04-01T06:26:34.625Z,65.90
2023-04-01T06:27:34.648Z,66.18
2023-04-01T06:28:34.608Z,66.92
2023-04-01T06:29:35.392Z,67.31
2023-04-01T06:30:34.600Z,64.66
2023-04-01T06:31:34.598Z,64.62
2023-04-01T06:32:34.589Z,67.41
2023-04-01T06:33:34.584Z,67.89
2023-04-01T06:34:34.561Z,64.49
2023-04-01T06:35:34.803Z,65.75
2023-04-01T06:36:34.622Z,66.48
2023-04-01T06:37:35.553Z,67.39
2023-04-01T06:38:35.398Z,63.62
2023-04-01T06:39:34.554Z,68.03
2023-04-01T06:40:34.527Z,62.99
2023-04-01T06:41:34.535Z,67.27
2023-04-01T06:42:35.484Z,67.51
2023-04-01T06:43:34.506Z,64.27
2023-04-01T06:44:34.483Z,61.52
2023-04-01T06:45:34.756Z,64.01
2023-04-01T06:46:34.463Z,65.87
2023-04-01T06:47:34.471Z,67.80
2023-04-01T06:48:34.478Z,66.23
2023-04-01T06:49:34.482Z,67.74
2023-04-01T06:50:34.425Z,70.33
2023-04-01T06:51:35.972Z,66.85
2023-04-01T06:52:35.007Z,69.44
2023-04-01T06:53:34.411Z,67.50
2023-04-01T06:54:34.473Z,65.64
2023-04-01T06:55:34.614Z,66.62
2023-04-01T06:56:34.421Z,67.30
2023-04-01T06:57:34.371Z,66.35
2023-04-01T06:58:35.052Z,67.06
2023-04-01T06:59:34.373Z,64.74
2023-04-01T07:00:34.351Z,67.25
2023-04-01T07:01:34.415Z,63.81
2023-04-01T07:02:35.353Z,67.58
2023-04-01T07:03:34.367Z,67.53
2023-04-01T07:04:34.369Z,66.13
2023-04-01T07:05:34.474Z,65.73
2023-04-01T07:07:07.969Z,67.02
2023-04-01T07:08:06.536Z,64.37
2023-04-01T07:09:06.987Z,66.42
2023-04-01T07:09:34.282Z,67.89
2023-04-01T07:10:34.269Z,65.89
2023-04-01T07:11:34.390Z,66.64
2023-04-01T07:12:34.275Z,64.61
2023-04-01T07:13:34.289Z,66.43
2023-04-01T07:15:06.559Z,63.91
2023-04-01T07:16:07.086Z,64.32
2023-04-01T07:16:34.277Z,68.60
2023-04-01T07:18:07.622Z,65.11
2023-04-01T07:19:07.148Z,65.11
2023-04-01T07:19:34.194Z,67.25
2023-04-01T07:20:34.218Z,67.61
2023-04-01T07:21:34.172Z,68.15
2023-04-01T07:22:34.162Z,66.38
2023-04-01T07:23:34.159Z,66.45
2023-04-01T07:24:36.634Z,66.79
2023-04-01T07:25:34.376Z,67.32
2023-04-01T07:26:34.138Z,66.71
2023-04-01T07:27:34.132Z,69.27
2023-04-01T07:29:07.170Z,64.32
2023-04-01T07:29:34.130Z,65.28
2023-04-01T07:30:34.095Z,68.11
2023-04-01T07:31:34.218Z,68.99
2023-04-01T07:32:36.047Z,67.35
2023-04-01T07:33:35.079Z,68.08
2023-04-01T07:34:34.064Z,65.51
2023-04-01T07:35:34.264Z,63.73
2023-04-01T07:36:34.094Z,66.08
2023-04-01T07:37:34.065Z,67.54
2023-04-01T07:38:34.030Z,66.77
2023-04-01T07:39:34.012Z,66.50
2023-04-01T07:40:34.664Z,66.03
2023-04-01T07:41:34.010Z,65.28
2023-04-01T07:42:34.010Z,65.93
2023-04-01T07:43:33.989Z,65.73
2023-04-01T07:44:33.975Z,65.37
2023-04-01T07:45:34.190Z,64.87
2023-04-01T07:46:34.052Z,66.83
2023-04-01T07:47:34.091Z,65.09
2023-04-01T07:48:33.972Z,64.76
2023-04-01T07:49:34.746Z,65.23
2023-04-01T07:50:33.937Z,65.68
2023-04-01T07:51:33.921Z,67.56
2023-04-01T07:52:33.913Z,66.89
2023-04-01T07:53:33.921Z,64.07
2023-04-01T07:54:33.914Z,68.28
2023-04-01T07:55:34.200Z,68.55
2023-04-01T07:56:33.895Z,67.28
2023-04-01T07:57:33.877Z,67.68
2023-04-01T07:58:33.869Z,65.55
2023-04-01T07:59:34.733Z,67.24
2023-04-01T08:00:33.850Z,69.67
2023-04-01T08:01:34.682Z,66.58
2023-04-01T08:02:33.927Z,68.24
2023-04-01T08:03:33.950Z,65.28
2023-04-01T08:04:33.883Z,64.86
2023-04-01T08:05:34.090Z,65.89
2023-04-01T08:06:34.659Z,68.24
2023-04-01T08:07:33.792Z,64.72
2023-04-01T08:08:33.796Z,66.61
2023-04-01T08:09:33.790Z,67.60
2023-04-01T08:10:33.782Z,67.81
2023-04-01T08:11:34.667Z,66.41
2023-04-01T08:12:33.777Z,66.05
2023-04-01T08:13:33.753Z,63.25
2023-04-01T08:14:33.729Z,65.75
2023-04-01T08:15:33.902Z,65.41
2023-04-01T08:16:33.799Z,64.93
2023-04-01T08:17:33.802Z,65.86
2023-04-01T08:18:33.716Z,66.73
2023-04-01T08:19:33.693Z,65.90
2023-04-01T08:20:33.688Z,66.17
2023-04-01T08:21:34.250Z,66.16
2023-04-01T08:22:33.662Z,65.18
2023-04-01T08:23:33.662Z,63.50
2023-04-01T08:24:44.412Z,64.96
2023-04-01T08:25:35.790Z,67.92
2023-04-01T08:26:33.650Z,65.79
2023-04-01T08:27:34.249Z,68.61
2023-04-01T08:30:42.861Z,66.47
2023-04-01T08:31:42.907Z,66.27
2023-04-01T08:32:44.895Z,66.42
2023-04-01T08:33:45.096Z,64.39
2023-04-01T08:34:44.956Z,65.01
2023-04-01T08:35:43.281Z,65.93
2023-04-01T08:36:44.953Z,65.48
2023-04-01T08:37:43.025Z,67.13
2023-04-01T08:38:43.027Z,65.62
2023-04-01T08:39:43.035Z,66.15
2023-04-01T08:40:43.011Z,64.46
2023-04-01T08:43:31.295Z,68.47
2023-04-01T08:44:32.777Z,64.81
2023-04-01T08:45:31.068Z,65.29
2023-04-01T08:46:31.765Z,64.70
2023-04-01T08:47:30.909Z,65.17
2023-04-01T08:48:30.914Z,67.60
2023-04-01T08:49:30.901Z,64.79
2023-04-01T08:50:31.284Z,66.22
2023-04-01T08:51:31.773Z,66.70
2023-04-01T08:52:30.880Z,66.73
2023-04-01T08:53:30.851Z,66.64
2023-04-01T08:54:30.882Z,67.93
2023-04-01T08:55:30.990Z,66.27
2023-04-01T08:56:31.789Z,67.54
2023-04-01T08:57:30.896Z,65.98
2023-04-01T08:58:32.831Z,67.99
2023-04-01T08:59:32.891Z,65.86
2023-04-01T09:00:32.865Z,66.97
2023-04-01T09:01:31.881Z,66.56
2023-04-01T09:02:31.876Z,66.91
2023-04-01T09:03:33.907Z,66.57
2023-04-01T09:04:31.920Z,66.94
2023-04-01T09:05:32.130Z,67.05
2023-04-01T09:06:31.841Z,64.19
2023-04-01T09:07:31.843Z,65.43
2023-04-01T09:08:32.368Z,67.11
2023-04-01T09:09:31.805Z,65.38
2023-04-01T09:10:33.779Z,65.62
2023-04-01T09:11:31.833Z,64.67
2023-04-01T09:12:34.947Z,65.12
2023-04-01T09:13:33.266Z,64.01
2023-04-01T09:14:31.782Z,66.03
2023-04-01T09:17:45.302Z,65.16
2023-04-01T09:18:45.249Z,65.40
2023-04-01T09:19:45.269Z,67.99
2023-04-01T09:20:48.115Z,66.20
2023-04-01T09:21:49.172Z,66.75
2023-04-01T09:22:47.132Z,66.63
2023-04-01T09:23:48.241Z,64.10
2023-04-01T09:24:47.208Z,66.51
2023-04-01T09:25:46.303Z,67.12
2023-04-01T09:26:46.369Z,66.01
2023-04-01T09:27:46.289Z,66.86
2023-04-01T09:28:46.276Z,65.09
2023-04-01T09:29:46.312Z,65.87
2023-04-01T09:30:46.254Z,67.74
2023-04-01T09:31:46.264Z,66.35
2023-04-01T09:32:46.277Z,67.28
2023-04-01T09:33:46.237Z,66.31
2023-04-01T09:34:46.241Z,66.52
2023-04-01T09:35:48.767Z,64.29
2023-04-01T09:36:46.224Z,67.06
2023-04-01T09:37:46.224Z,65.14
2023-04-01T09:38:46.197Z,66.89
2023-04-01T09:39:46.185Z,65.99
2023-04-01T09:40:46.187Z,67.01
2023-04-01T09:41:46.185Z,64.70
2023-04-01T09:42:46.179Z,64.20
2023-04-01T09:43:46.224Z,63.66
2023-04-01T09:44:46.158Z,67.69
2023-04-01T09:45:46.145Z,68.47
2023-04-01T09:46:46.361Z,66.16
2023-04-01T09:47:46.166Z,65.69
2023-04-01T09:48:46.120Z,67.52
2023-04-01T09:49:46.122Z,65.82
2023-04-01T09:50:46.115Z,68.27
2023-04-01T09:51:47.740Z,69.66
2023-04-01T09:52:46.554Z,64.88
2023-04-01T09:55:35.582Z,66.21
2023-04-01T09:56:34.475Z,67.22
2023-04-01T09:57:34.449Z,66.12
2023-04-01T09:58:35.533Z,65.96
2023-04-01T09:59:37.089Z,65.51
2023-04-01T10:00:35.516Z,67.69
2023-04-01T10:01:35.509Z,66.78
2023-04-01T10:02:35.549Z,68.10
2023-04-01T10:03:35.481Z,67.32
2023-04-01T10:05:08.587Z,67.61
2023-04-01T10:05:35.745Z,68.04
2023-04-01T10:06:35.441Z,67.97
2023-04-01T10:07:35.449Z,67.77
2023-04-01T10:08:35.437Z,68.17
2023-04-01T10:09:35.420Z,67.51
2023-04-01T10:10:35.414Z,65.33
2023-04-01T10:11:35.418Z,67.47
2023-04-01T10:12:35.392Z,66.41
2023-04-01T10:13:35.392Z,66.31
2023-04-01T10:14:35.393Z,68.81
2023-04-01T10:15:35.669Z,68.65
2023-04-01T10:16:35.437Z,67.07
2023-04-01T10:17:35.409Z,67.27
2023-04-01T10:18:36.347Z,67.63
2023-04-01T10:19:35.348Z,69.96
2023-04-01T10:20:35.328Z,68.65
2023-04-01T10:21:35.334Z,67.93
2023-04-01T10:22:36.350Z,67.68
2023-04-01T10:23:36.075Z,70.56
2023-04-01T10:24:35.298Z,69.35
2023-04-01T10:25:36.140Z,69.80
2023-04-01T10:26:35.274Z,70.16
2023-04-01T10:27:35.317Z,69.69
2023-04-01T10:28:35.263Z,66.84
2023-04-01T10:29:35.252Z,69.68
2023-04-01T10:30:35.292Z,69.12
2023-04-01T10:31:35.276Z,69.30
2023-04-01T10:32:35.241Z,68.21
2023-04-01T10:33:35.245Z,68.66
2023-04-01T10:34:35.229Z,69.69
2023-04-01T10:35:35.686Z,68.94
2023-04-01T10:36:35.263Z,68.60
2023-04-01T10:37:35.208Z,69.13
2023-04-01T10:38:36.135Z,70.57
2023-04-01T10:39:35.187Z,68.35
2023-04-01T10:40:35.173Z,69.41
2023-04-01T10:41:35.150Z,66.71
2023-04-01T10:42:35.228Z,67.47
2023-04-01T10:43:35.148Z,64.98
2023-04-01T10:44:35.140Z,67.28
2023-04-01T10:45:35.459Z,69.72
2023-04-01T10:46:35.284Z,67.81
2023-04-01T10:47:35.173Z,68.45
2023-04-01T10:48:35.116Z,68.02
2023-04-01T10:49:35.102Z,67.49
2023-04-01T10:50:35.084Z,68.45
2023-04-01T10:51:35.088Z,68.29
2023-04-01T10:52:35.089Z,66.38
2023-04-01T10:53:35.137Z,67.01
2023-04-01T10:54:35.069Z,69.01
2023-04-01T10:55:35.266Z,68.00
2023-04-01T10:56:35.037Z,68.69
2023-04-01T10:57:35.157Z,68.41
2023-04-01T10:58:35.025Z,67.05
2023-04-01T10:59:35.005Z,69.53
2023-04-01T11:00:34.994Z,70.44
2023-04-01T11:01:35.061Z,67.50
2023-04-01T11:02:36.695Z,67.97
2023-04-01T11:03:35.088Z,67.99
2023-04-01T11:04:34.972Z,68.81
2023-04-01T11:05:35.177Z,70.15
2023-04-01T11:06:34.989Z,68.59
2023-04-01T11:07:34.946Z,69.06
2023-04-01T11:08:34.944Z,69.57
2023-04-01T11:09:34.921Z,68.66
2023-04-01T11:10:34.977Z,66.49
2023-04-01T11:11:34.918Z,65.47
2023-04-01T11:12:34.899Z,66.86
2023-04-01T11:13:34.906Z,66.82
2023-04-01T11:14:34.892Z,67.52
2023-04-01T11:15:35.151Z,66.53
2023-04-01T11:16:34.982Z,67.06
2023-04-01T11:17:34.881Z,67.17
2023-04-01T11:18:34.856Z,68.95
2023-04-01T11:19:34.853Z,66.70
2023-04-01T11:20:34.838Z,68.63
2023-04-01T11:21:34.830Z,67.66
2023-04-01T11:22:34.821Z,66.62
2023-04-01T11:23:34.846Z,69.47
2023-04-01T11:24:35.630Z,69.30
2023-04-01T11:25:34.991Z,66.38
2023-04-01T11:26:34.876Z,65.94
2023-04-01T11:27:34.788Z,68.43
2023-04-01T11:28:34.779Z,67.48
2023-04-01T11:29:34.753Z,67.19
2023-04-01T11:30:34.755Z,64.05
2023-04-01T11:31:34.762Z,65.00
2023-04-01T11:32:34.828Z,67.19
2023-04-01T11:33:34.743Z,67.86
2023-04-01T11:34:34.726Z,65.89
2023-04-01T11:35:35.073Z,65.60
2023-04-01T11:36:34.760Z,66.09
2023-04-01T11:37:34.691Z,64.63
2023-04-01T11:38:34.709Z,66.62
2023-04-01T11:39:34.686Z,66.80
2023-04-01T11:40:34.659Z,65.89
2023-04-01T11:41:34.662Z,65.93
2023-04-01T11:42:34.662Z,66.74
2023-04-01T11:43:34.656Z,65.92
2023-04-01T11:44:34.635Z,65.63
2023-04-01T11:45:34.924Z,68.01
2023-04-01T11:46:34.644Z,66.20
2023-04-01T11:47:34.636Z,62.22
2023-04-01T11:48:34.632Z,66.49
2023-04-01T11:49:34.600Z,67.25
2023-04-01T11:50:34.602Z,67.72
2023-04-01T11:51:34.576Z,66.18
2023-04-01T11:52:34.662Z,68.64
2023-04-01T11:53:34.583Z,65.97
2023-04-01T11:54:34.590Z,67.71
2023-04-01T11:55:34.917Z,67.89
2023-04-01T11:56:34.583Z,67.51
2023-04-01T11:57:34.571Z,68.30
2023-04-01T11:58:34.535Z,67.31
2023-04-01T11:59:34.520Z,66.20
2023-04-01T12:00:34.513Z,69.45
2023-04-01T12:01:34.528Z,68.28
2023-04-01T12:02:34.561Z,67.75
2023-04-01T12:03:34.615Z,67.12
2023-04-01T12:04:34.575Z,66.06
2023-04-01T12:05:34.726Z,69.44
2023-04-01T12:06:34.465Z,67.19
2023-04-01T12:07:34.449Z,66.01
2023-04-01T12:08:34.451Z,66.69
2023-04-01T12:09:34.436Z,68.12
2023-04-01T12:10:34.477Z,66.75
2023-04-01T12:11:34.429Z,66.12
2023-04-01T12:12:34.435Z,66.72
2023-04-01T12:13:34.406Z,65.16
2023-04-01T12:14:34.418Z,64.82
2023-04-01T12:15:34.805Z,67.76
2023-04-01T12:16:34.419Z,66.74
2023-04-01T12:17:34.408Z,66.90
2023-04-01T12:18:34.369Z,66.96
2023-04-01T12:19:34.364Z,66.93
2023-04-01T12:20:34.389Z,66.57
2023-04-01T12:21:34.511Z,65.66
2023-04-01T12:22:34.376Z,66.34
2023-04-01T12:23:34.329Z,68.85
2023-04-01T12:24:34.324Z,70.50
2023-04-01T12:25:34.512Z,67.29
2023-04-01T12:26:34.312Z,69.57
2023-04-01T12:27:34.300Z,68.04
2023-04-01T12:28:34.335Z,64.16
2023-04-01T12:29:34.323Z,66.13
2023-04-01T12:30:34.299Z,66.61
2023-04-01T12:31:34.306Z,67.22
2023-04-01T12:32:34.265Z,67.27
2023-04-01T12:33:36.018Z,69.93
2023-04-01T12:34:34.246Z,69.09
2023-04-01T12:35:34.350Z,67.99
2023-04-01T12:36:35.178Z,70.41
2023-04-01T12:37:34.204Z,68.30
2023-04-01T12:38:34.224Z,69.59
2023-04-01T12:39:35.192Z,66.79
2023-04-01T12:40:34.422Z,67.28
2023-04-01T12:41:34.181Z,69.51
2023-04-01T12:42:34.182Z,67.70
2023-04-01T12:43:34.177Z,66.39
2023-04-01T12:44:34.154Z,69.73
2023-04-01T12:45:34.564Z,68.18
2023-04-01T12:46:34.166Z,69.55
2023-04-01T12:47:34.180Z,67.52
2023-04-01T12:48:34.124Z,64.78
2023-04-01T12:49:34.117Z,68.24
2023-04-01T12:50:34.104Z,67.57
2023-04-01T12:51:34.096Z,65.26
2023-04-01T12:52:34.092Z,69.34
2023-04-01T12:53:34.079Z,67.61
2023-04-01T12:54:34.098Z,69.02
2023-04-01T12:55:34.253Z,67.72
2023-04-01T12:56:34.073Z,69.43
2023-04-01T12:57:34.190Z,68.65
2023-04-01T12:58:34.043Z,68.41
2023-04-01T12:59:34.037Z,69.62
2023-04-01T13:00:34.028Z,68.60
2023-04-01T13:01:34.071Z,67.86
2023-04-01T13:02:34.113Z,69.00